createdAt,value
2019-06-20T00:02:01.379Z,64.20
2019-06-20T00:04:32.921Z,64.20
2019-06-20T00:07:04.094Z,64.30
2019-06-20T00:09:40.346Z,64.30
2019-06-20T00:12:11.894Z,64.40
2019-06-20T00:14:45.187Z,64.30
2019-06-20T00:17:17.655Z,64.10
2019-06-20T00:19:52.518Z,64.30
2019-06-20T00:22:28.631Z,64.30
2019-06-20T00:25:02.865Z,64.20
2019-06-20T00:27:34.415Z,64.20
2019-06-20T00:30:07.058Z,64.30
2019-06-20T00:32:38.263Z,64.20
2019-06-20T00:35:09.694Z,64.30
2019-06-20T00:37:42.168Z,64.20
2019-06-20T00:40:16.592Z,64.20
2019-06-20T00:42:48.045Z,64.30
2019-06-20T00:45:21.338Z,64.30
2019-06-20T00:47:54.939Z,64.40
2019-06-20T00:50:27.873Z,64.20
2019-06-20T00:52:58.772Z,64.20
2019-06-20T00:55:31.782Z,64.20
2019-06-20T00:58:05.040Z,64.20
2019-06-20T01:00:39.115Z,64.20
2019-06-20T01:03:17.466Z,64.30
2019-06-20T01:05:47.743Z,64.30
2019-06-20T01:08:18.850Z,64.20
2019-06-20T01:10:50.451Z,64.20
2019-06-20T01:13:33.528Z,64.10
2019-06-20T01:15:55.507Z,64.30
2019-06-20T01:18:29.549Z,64.20
2019-06-20T01:20:59.944Z,64.10
2019-06-20T01:23:32.759Z,64.20
2019-06-20T01:26:04.387Z,64.20
2019-06-20T01:28:37.194Z,64.30
2019-06-20T01:31:09.612Z,64.30
2019-06-20T01:33:40.711Z,64.20
2019-06-20T01:36:15.480Z,64.20
2019-06-20T01:38:49.755Z,64.20
2019-06-20T01:41:20.159Z,64.30
2019-06-20T01:43:51.442Z,64.20
2019-06-20T01:46:23.597Z,64.20
2019-06-20T01:49:07.247Z,64.10
2019-06-20T01:51:37.641Z,64.20
2019-06-20T01:54:08.633Z,64.20
2019-06-20T01:56:44.765Z,64.30
2019-06-20T01:59:15.955Z,64.30
2019-06-20T02:01:48.168Z,64.30
2019-06-20T02:04:19.686Z,64.30
2019-06-20T02:06:50.322Z,64.30
2019-06-20T02:09:22.226Z,64.30
2019-06-20T02:11:52.636Z,64.30
2019-06-20T02:14:23.602Z,64.20
2019-06-20T02:16:58.401Z,64.30
2019-06-20T02:19:33.247Z,64.30
2019-06-20T02:22:07.746Z,64.30
2019-06-20T02:24:40.136Z,64.30
2019-06-20T02:27:14.193Z,64.30
2019-06-20T02:29:48.178Z,64.20
2019-06-20T02:32:18.657Z,64.30
2019-06-20T02:34:52.398Z,64.20
2019-06-20T02:37:24.077Z,64.30
2019-06-20T02:39:54.990Z,64.30
2019-06-20T02:42:30.925Z,64.20
2019-06-20T02:45:04.938Z,64.20
2019-06-20T02:47:39.070Z,64.30
2019-06-20T02:50:13.397Z,64.30
2019-06-20T02:52:46.615Z,64.20
2019-06-20T02:55:18.134Z,64.20
2019-06-20T02:57:58.018Z,64.30
2019-06-20T03:01:04.649Z,64.20
2019-06-20T03:03:42.859Z,64.30
2019-06-20T03:06:13.983Z,64.30
2019-06-20T03:08:47.242Z,64.20
2019-06-20T03:11:18.208Z,64.20
2019-06-20T03:13:48.841Z,64.30
2019-06-20T03:16:21.478Z,64.30
2019-06-20T03:18:54.814Z,64.20
2019-06-20T03:21:27.323Z,64.20
2019-06-20T03:23:57.645Z,64.20
2019-06-20T03:26:28.695Z,64.30
2019-06-20T03:28:59.079Z,64.20
2019-06-20T03:31:31.743Z,64.10
2019-06-20T03:34:07.945Z,64.10
2019-06-20T03:36:39.098Z,64.10
2019-06-20T03:39:09.488Z,64.10
2019-06-20T03:41:46.496Z,64.10
2019-06-20T03:44:22.974Z,64.20
2019-06-20T03:46:55.054Z,64.10
2019-06-20T03:49:31.721Z,64.10
2019-06-20T03:52:10.911Z,64.10
2019-06-20T03:54:45.058Z,64.20
2019-06-20T03:57:20.082Z,64.00
2019-06-20T03:59:50.587Z,64.00
2019-06-20T04:02:24.355Z,64.10
2019-06-20T04:04:57.559Z,64.00
2019-06-20T04:07:37.371Z,64.90
2019-06-20T04:10:09.631Z,64.00
2019-06-20T04:12:42.511Z,64.00
2019-06-20T04:15:19.016Z,64.10
2019-06-20T04:17:45.635Z,64.10
2019-06-20T04:20:16.032Z,64.00
2019-06-20T04:22:47.611Z,64.00
2019-06-20T04:25:17.995Z,63.90
2019-06-20T04:27:48.978Z,63.90
2019-06-20T04:30:19.667Z,64.00
2019-06-20T04:32:50.355Z,64.00
2019-06-20T04:35:21.036Z,64.00
2019-06-20T04:37:53.092Z,63.90
2019-06-20T04:40:25.111Z,63.90
2019-06-20T04:42:56.145Z,63.90
2019-06-20T04:45:51.264Z,63.90
2019-06-20T04:48:25.774Z,63.90
2019-06-20T04:50:57.344Z,63.90
2019-06-20T04:53:28.997Z,63.90
2019-06-20T04:56:05.881Z,63.80
2019-06-20T04:58:37.435Z,63.80
2019-06-20T05:01:09.382Z,63.80
2019-06-20T05:03:40.735Z,63.80
2019-06-20T05:06:11.783Z,63.70
2019-06-20T05:08:43.215Z,63.70
2019-06-20T05:11:14.359Z,63.80
2019-06-20T05:13:45.859Z,63.70
2019-06-20T05:16:18.810Z,63.70
2019-06-20T05:18:49.658Z,63.70
2019-06-20T05:21:22.495Z,64.40
2019-06-20T05:23:53.587Z,63.60
2019-06-20T05:26:27.608Z,63.60
2019-06-20T05:28:59.123Z,63.60
2019-06-20T05:31:33.950Z,63.60
2019-06-20T05:34:06.018Z,63.50
2019-06-20T05:36:38.833Z,63.60
2019-06-20T05:39:09.841Z,63.50
2019-06-20T05:41:41.918Z,63.50
2019-06-20T05:44:13.138Z,63.50
2019-06-20T05:46:44.502Z,63.50
2019-06-20T05:49:19.034Z,63.50
2019-06-20T05:51:50.694Z,63.40
2019-06-20T05:54:27.849Z,63.40
2019-06-20T05:57:03.734Z,63.40
2019-06-20T05:59:34.660Z,63.40
2019-06-20T06:02:07.399Z,63.40
2019-06-20T06:04:40.056Z,63.30
2019-06-20T06:07:14.205Z,63.30
2019-06-20T06:09:45.693Z,63.30
2019-06-20T06:12:21.545Z,63.40
2019-06-20T06:14:55.167Z,63.30
2019-06-20T06:17:25.598Z,63.30
2019-06-20T06:19:57.549Z,63.30
2019-06-20T06:22:28.526Z,63.30
2019-06-20T06:25:01.953Z,63.30
2019-06-20T06:27:35.072Z,63.40
2019-06-20T06:30:06.737Z,63.20
2019-06-20T06:32:42.258Z,63.30
2019-06-20T06:35:16.535Z,63.20
2019-06-20T06:37:49.154Z,63.20
2019-06-20T06:40:20.025Z,63.20
2019-06-20T06:42:52.812Z,63.20
2019-06-20T06:45:25.095Z,63.20
2019-06-20T06:47:58.437Z,63.20
2019-06-20T06:50:31.582Z,63.20
2019-06-20T06:53:04.018Z,63.10
2019-06-20T06:55:39.801Z,63.10
2019-06-20T06:58:12.252Z,63.10
2019-06-20T07:00:42.572Z,63.10
2019-06-20T07:03:13.795Z,63.10
2019-06-20T07:05:44.074Z,63.10
2019-06-20T07:08:14.786Z,63.10
2019-06-20T07:10:45.322Z,63.10
2019-06-20T07:13:16.179Z,63.00
2019-06-20T07:15:49.713Z,63.10
2019-06-20T07:18:21.641Z,63.90
2019-06-20T07:20:52.289Z,63.00
2019-06-20T07:23:23.010Z,63.00
2019-06-20T07:25:53.790Z,63.00
2019-06-20T07:28:24.793Z,63.70
2019-06-20T07:30:55.269Z,63.00
2019-06-20T07:33:27.380Z,63.00
2019-06-20T07:35:59.490Z,63.00
2019-06-20T07:38:30.734Z,62.90
2019-06-20T07:41:02.979Z,62.90
2019-06-20T07:43:37.015Z,62.90
2019-06-20T07:46:12.215Z,62.90
2019-06-20T07:48:43.295Z,62.80
2019-06-20T07:51:14.730Z,63.00
2019-06-20T07:53:46.193Z,62.80
2019-06-20T07:56:17.580Z,63.60
2019-06-20T07:58:48.905Z,62.80
2019-06-20T08:01:19.848Z,62.80
2019-06-20T08:03:50.781Z,62.70
2019-06-20T08:06:21.585Z,62.80
2019-06-20T08:08:58.148Z,62.70
2019-06-20T08:11:30.060Z,62.70
2019-06-20T08:14:01.308Z,62.80
2019-06-20T08:16:32.635Z,62.80
2019-06-20T08:19:04.077Z,62.80
2019-06-20T08:21:35.111Z,62.70
2019-06-20T08:24:06.434Z,62.60
2019-06-20T08:26:38.743Z,62.60
2019-06-20T08:29:20.375Z,62.70
2019-06-20T08:31:42.887Z,62.70
2019-06-20T08:34:14.020Z,62.60
2019-06-20T08:36:46.390Z,62.60
2019-06-20T08:39:17.241Z,62.60
2019-06-20T08:41:48.391Z,62.60
2019-06-20T08:44:19.508Z,62.60
2019-06-20T08:46:51.889Z,62.60
2019-06-20T08:49:22.449Z,62.60
2019-06-20T08:51:55.636Z,62.60
2019-06-20T08:54:27.546Z,62.60
2019-06-20T08:56:59.221Z,63.40
2019-06-20T08:59:30.396Z,62.60
2019-06-20T09:04:36.504Z,62.50
2019-06-20T09:07:08.237Z,62.50
2019-06-20T09:09:39.871Z,62.50
2019-06-20T09:12:11.665Z,62.40
2019-06-20T09:14:42.671Z,62.40
2019-06-20T09:17:14.510Z,62.60
2019-06-20T09:19:46.010Z,62.50
2019-06-20T09:22:17.109Z,62.50
2019-06-20T09:24:52.033Z,62.50
2019-06-20T09:27:25.240Z,62.50
2019-06-20T09:29:58.431Z,62.50
2019-06-20T09:32:29.231Z,62.60
2019-06-20T09:35:04.062Z,62.50
2019-06-20T09:37:34.873Z,62.50
2019-06-20T09:40:08.803Z,62.50
2019-06-20T09:42:39.916Z,62.50
2019-06-20T09:45:11.758Z,62.50
2019-06-20T09:47:42.994Z,62.50
2019-06-20T09:50:14.624Z,62.50
2019-06-20T09:52:49.783Z,62.60
2019-06-20T09:55:20.932Z,62.50
2019-06-20T09:57:53.601Z,62.50
2019-06-20T10:00:25.387Z,62.50
2019-06-20T10:02:57.852Z,62.50
2019-06-20T10:05:28.541Z,62.60
2019-06-20T10:08:02.470Z,62.50
2019-06-20T10:10:33.895Z,62.50
2019-06-20T10:13:06.719Z,62.50
2019-06-20T10:15:38.951Z,62.50
2019-06-20T10:18:12.690Z,62.50
2019-06-20T10:20:44.382Z,62.50
2019-06-20T10:23:16.228Z,62.50
2019-06-20T10:25:49.654Z,62.60
2019-06-20T10:28:20.951Z,62.60
2019-06-20T10:30:51.344Z,62.50
2019-06-20T10:33:22.618Z,62.60
2019-06-20T10:35:53.022Z,62.60
2019-06-20T10:38:23.679Z,62.60
2019-06-20T10:40:53.954Z,62.60
2019-06-20T10:43:26.588Z,62.60
2019-06-20T10:45:58.870Z,62.60
2019-06-20T10:48:30.099Z,62.60
2019-06-20T10:51:38.723Z,62.60
2019-06-20T10:54:09.539Z,62.60
2019-06-20T10:56:40.442Z,62.60
2019-06-20T10:59:13.073Z,62.60
2019-06-20T11:01:44.368Z,62.50
2019-06-20T11:04:15.618Z,62.60
2019-06-20T11:06:47.522Z,62.50
2019-06-20T11:09:19.182Z,62.60
2019-06-20T11:11:52.612Z,62.50
2019-06-20T11:14:23.931Z,62.50
2019-06-20T11:16:54.311Z,62.50
2019-06-20T11:19:27.019Z,62.50
2019-06-20T11:21:57.738Z,62.50
2019-06-20T11:24:28.566Z,62.50
2019-06-20T11:27:01.666Z,62.40
2019-06-20T11:29:35.105Z,62.40
2019-06-20T11:32:05.487Z,62.40
2019-06-20T11:34:37.802Z,62.30
2019-06-20T11:37:12.005Z,62.40
2019-06-20T11:39:47.434Z,62.30
2019-06-20T11:42:19.442Z,62.20
2019-06-20T11:44:51.809Z,62.20
2019-06-20T11:47:25.553Z,62.20
2019-06-20T11:49:56.858Z,62.20
2019-06-20T11:52:27.232Z,62.30
2019-06-20T11:55:03.114Z,62.30
2019-06-20T11:57:33.819Z,62.20
2019-06-20T12:00:06.344Z,62.20
2019-06-20T12:02:40.519Z,62.00
2019-06-20T12:05:10.991Z,62.00
2019-06-20T12:07:43.529Z,62.10
2019-06-20T12:10:15.034Z,62.00
2019-06-20T12:12:46.767Z,62.00
2019-06-20T12:15:19.945Z,62.20
2019-06-20T12:17:50.412Z,62.20
2019-06-20T12:20:23.465Z,62.10
2019-06-20T12:22:56.103Z,62.20
2019-06-20T12:25:27.018Z,62.20
2019-06-20T12:27:59.633Z,62.20
2019-06-20T12:30:30.461Z,62.20
2019-06-20T12:33:00.870Z,62.20
2019-06-20T12:35:35.519Z,62.00
2019-06-20T12:38:05.939Z,62.10
2019-06-20T12:40:39.093Z,62.20
2019-06-20T12:43:09.156Z,62.20
2019-06-20T12:45:41.286Z,62.00
2019-06-20T12:48:12.351Z,62.00
2019-06-20T12:50:47.607Z,62.10
2019-06-20T12:53:18.372Z,62.00
2019-06-20T12:55:50.785Z,62.00
2019-06-20T12:58:21.534Z,61.90
2019-06-20T13:00:53.129Z,62.00
2019-06-20T13:03:23.526Z,62.10
2019-06-20T13:05:54.794Z,62.00
2019-06-20T13:08:25.210Z,62.00
2019-06-20T13:10:55.934Z,62.00
2019-06-20T13:13:26.554Z,62.00
2019-06-20T13:15:57.134Z,61.90
2019-06-20T13:18:27.623Z,61.90
2019-06-20T13:20:58.902Z,61.90
2019-06-20T13:23:29.292Z,61.90
2019-06-20T13:26:00.009Z,61.90
2019-06-20T13:28:30.687Z,61.90
2019-06-20T13:31:02.871Z,61.90
2019-06-20T13:33:33.254Z,61.90
2019-06-20T13:36:04.538Z,61.90
2019-06-20T13:38:34.967Z,61.80
2019-06-20T13:41:06.198Z,61.80
2019-06-20T13:43:36.619Z,61.70
2019-06-20T13:46:07.875Z,61.80
2019-06-20T13:48:38.900Z,61.60
2019-06-20T13:51:10.551Z,61.60
2019-06-20T13:53:42.668Z,61.50
2019-06-20T13:56:14.319Z,61.50
2019-06-20T13:58:44.841Z,61.70
2019-06-20T14:01:16.283Z,61.50
2019-06-20T14:03:46.996Z,61.50
2019-06-20T14:06:18.556Z,61.40
2019-06-20T14:08:50.253Z,61.40
2019-06-20T14:11:20.757Z,61.30
2019-06-20T14:13:53.040Z,61.30
2019-06-20T14:16:23.698Z,61.30
2019-06-20T14:18:54.146Z,61.30
2019-06-20T14:21:24.980Z,61.20
2019-06-20T14:23:56.687Z,61.20
2019-06-20T14:26:28.182Z,61.10
2019-06-20T14:28:59.691Z,61.10
2019-06-20T14:31:31.648Z,61.00
2019-06-20T14:34:02.258Z,60.90
2019-06-20T14:36:34.086Z,60.90
2019-06-20T14:39:05.860Z,60.70
2019-06-20T14:41:36.590Z,60.70
2019-06-20T14:44:06.984Z,60.60
2019-06-20T14:46:38.393Z,60.60
2019-06-20T14:49:08.905Z,60.50
2019-06-20T14:51:43.824Z,60.40
2019-06-20T14:54:15.693Z,60.40
2019-06-20T14:56:47.850Z,60.40
2019-06-20T14:59:18.586Z,60.40
2019-06-20T15:01:52.566Z,60.40
2019-06-20T15:04:23.322Z,60.40
2019-06-20T15:06:54.748Z,60.40
2019-06-20T15:09:25.687Z,60.20
2019-06-20T15:11:56.908Z,60.10
2019-06-20T15:14:27.605Z,60.10
2019-06-20T15:16:58.601Z,60.20
2019-06-20T15:19:28.971Z,60.30
2019-06-20T15:22:03.026Z,60.40
2019-06-20T15:24:33.429Z,60.40
2019-06-20T15:27:04.793Z,60.60
2019-06-20T15:29:35.168Z,60.60
2019-06-20T15:32:06.103Z,60.50
2019-06-20T15:34:38.863Z,60.60
2019-06-20T15:37:09.808Z,60.80
2019-06-20T15:39:40.573Z,60.80
2019-06-20T15:42:11.553Z,60.80
2019-06-20T15:44:41.936Z,60.90
2019-06-20T15:47:13.258Z,60.80
2019-06-20T15:49:43.616Z,60.90
2019-06-20T15:52:14.928Z,61.60
2019-06-20T15:54:45.286Z,60.90
2019-06-20T15:57:16.580Z,61.00
2019-06-20T15:59:47.119Z,61.10
2019-06-20T16:02:18.590Z,61.00
2019-06-20T16:04:50.170Z,61.10
2019-06-20T16:07:21.757Z,61.20
2019-06-20T16:09:52.156Z,61.30
2019-06-20T16:12:22.972Z,61.30
2019-06-20T16:14:53.507Z,61.30
2019-06-20T16:17:25.442Z,61.30
2019-06-20T16:19:55.798Z,61.30
2019-06-20T16:22:26.758Z,61.30
2019-06-20T16:24:57.176Z,61.30
2019-06-20T16:27:29.412Z,61.50
2019-06-20T16:30:00.110Z,61.30
2019-06-20T16:32:31.021Z,61.30
2019-06-20T16:35:01.741Z,61.30
2019-06-20T16:37:32.579Z,61.30
2019-06-20T16:40:03.259Z,61.30
2019-06-20T16:42:33.930Z,61.20
2019-06-20T16:45:05.188Z,61.30
2019-06-20T16:47:35.779Z,61.30
2019-06-20T16:50:07.847Z,61.40
2019-06-20T16:52:38.486Z,61.40
2019-06-20T16:55:10.423Z,62.10
2019-06-20T16:57:44.103Z,61.50
2019-06-20T17:00:17.011Z,61.50
2019-06-20T17:02:48.465Z,61.50
2019-06-20T17:05:21.719Z,61.50
2019-06-20T17:07:54.618Z,61.50
2019-06-20T17:10:25.920Z,61.50
2019-06-20T17:12:56.922Z,61.60
2019-06-20T17:15:31.401Z,61.60
2019-06-20T17:18:02.681Z,61.70
2019-06-20T17:20:33.870Z,61.70
2019-06-20T17:23:05.446Z,61.70
2019-06-20T17:25:36.844Z,61.80
2019-06-20T17:28:10.649Z,61.80
2019-06-20T17:30:43.623Z,61.80
2019-06-20T17:33:15.214Z,61.80
2019-06-20T17:35:49.914Z,61.80
2019-06-20T17:38:20.989Z,61.90
2019-06-20T17:40:53.353Z,62.00
2019-06-20T17:43:24.460Z,61.90
2019-06-20T17:45:56.331Z,61.90
2019-06-20T17:48:31.147Z,61.90
2019-06-20T17:51:02.321Z,61.90
2019-06-20T17:53:33.554Z,61.90
2019-06-20T17:56:05.506Z,62.00
2019-06-20T17:58:36.796Z,62.00
2019-06-20T18:01:08.032Z,62.00
2019-06-20T18:03:38.945Z,62.00
2019-06-20T18:06:10.055Z,62.00
2019-06-20T18:08:42.138Z,62.00
2019-06-20T18:11:13.942Z,62.20
2019-06-20T18:13:45.674Z,62.10
2019-06-20T18:16:25.183Z,62.20
2019-06-20T18:18:54.419Z,62.00
2019-06-20T18:21:25.870Z,62.10
2019-06-20T18:23:57.691Z,62.10
2019-06-20T18:26:29.570Z,62.10
2019-06-20T18:29:01.545Z,62.20
2019-06-20T18:31:33.805Z,62.20
2019-06-20T18:34:04.947Z,62.20
2019-06-20T18:36:37.315Z,62.20
2019-06-20T18:39:11.535Z,62.20
2019-06-20T18:41:47.675Z,62.30
2019-06-20T18:44:19.043Z,62.30
2019-06-20T18:46:50.207Z,62.40
2019-06-20T18:49:21.326Z,62.20
2019-06-20T18:51:53.105Z,62.30
2019-06-20T18:54:23.959Z,62.40
2019-06-20T18:56:55.991Z,62.40
2019-06-20T18:59:33.519Z,62.30
2019-06-20T19:02:04.773Z,62.30
2019-06-20T19:04:46.241Z,62.40
2019-06-20T19:07:10.720Z,62.30
2019-06-20T19:09:41.144Z,62.40
2019-06-20T19:12:11.865Z,62.40
2019-06-20T19:14:42.450Z,62.50
2019-06-20T19:17:14.817Z,62.40
2019-06-20T19:19:45.702Z,62.40
2019-06-20T19:22:17.939Z,62.40
2019-06-20T19:24:50.082Z,62.50
2019-06-20T19:27:21.427Z,62.40
2019-06-20T19:29:51.795Z,62.50
2019-06-20T19:32:22.707Z,62.50
2019-06-20T19:35:02.175Z,62.60
2019-06-20T19:37:32.039Z,62.60
2019-06-20T19:40:02.672Z,62.60
2019-06-20T19:42:33.732Z,62.60
2019-06-20T19:45:06.320Z,62.60
2019-06-20T19:47:37.603Z,62.60
2019-06-20T19:50:08.666Z,62.50
2019-06-20T19:52:40.106Z,62.60
2019-06-20T19:55:11.574Z,62.50
2019-06-20T19:57:43.100Z,62.60
2019-06-20T20:00:15.090Z,62.50
2019-06-20T20:02:48.154Z,62.50
2019-06-20T20:05:20.202Z,62.60
2019-06-20T20:07:52.596Z,62.50
2019-06-20T20:10:34.483Z,62.60
2019-06-20T20:13:05.643Z,62.60
2019-06-20T20:15:36.638Z,62.60
2019-06-20T20:18:08.569Z,62.60
2019-06-20T20:20:40.725Z,62.60
2019-06-20T20:23:12.311Z,62.60
2019-06-20T20:25:43.515Z,62.60
2019-06-20T20:28:15.003Z,62.60
2019-06-20T20:30:45.921Z,62.70
2019-06-20T20:33:16.994Z,62.60
2019-06-20T20:35:47.830Z,62.60
2019-06-20T20:38:19.107Z,62.70
2019-06-20T20:40:49.618Z,62.60
2019-06-20T20:43:22.104Z,62.70
2019-06-20T20:45:55.223Z,62.70
2019-06-20T20:48:26.565Z,62.70
2019-06-20T20:50:57.064Z,62.70
2019-06-20T20:53:28.245Z,62.70
2019-06-20T20:56:01.597Z,62.70
2019-06-20T20:58:35.699Z,62.80
2019-06-20T21:01:15.799Z,62.70
2019-06-20T21:03:46.524Z,62.90
2019-06-20T21:06:25.331Z,62.80
2019-06-20T21:09:00.411Z,62.70
2019-06-20T21:11:31.698Z,62.80
2019-06-20T21:14:11.950Z,62.80
2019-06-20T21:16:46.800Z,62.80
2019-06-20T21:19:37.110Z,62.80
2019-06-20T21:22:09.886Z,62.80
2019-06-20T21:24:41.467Z,63.50
2019-06-20T21:27:13.465Z,62.80
2019-06-20T21:29:44.230Z,62.80
2019-06-20T21:32:14.963Z,62.80
2019-06-20T21:34:46.004Z,62.70
2019-06-20T21:37:16.997Z,62.70
2019-06-20T21:39:49.034Z,62.90
2019-06-20T21:42:22.154Z,62.80
2019-06-20T21:45:02.064Z,62.80
2019-06-20T21:47:32.518Z,62.80
2019-06-20T21:50:10.204Z,62.80
2019-06-20T21:52:40.707Z,62.90
2019-06-20T21:55:17.692Z,62.80
2019-06-20T21:57:51.411Z,62.80
2019-06-20T22:00:27.902Z,62.80
2019-06-20T22:03:02.188Z,62.80
2019-06-20T22:05:40.406Z,62.80
2019-06-20T22:08:11.794Z,62.80
2019-06-20T22:10:42.096Z,63.50
2019-06-20T22:13:19.713Z,62.80
2019-06-20T22:15:52.345Z,62.80
2019-06-20T22:18:25.780Z,62.90
2019-06-20T22:20:56.346Z,62.80
2019-06-20T22:23:27.311Z,62.80
2019-06-20T22:25:59.085Z,62.80
2019-06-20T22:28:29.499Z,62.90
2019-06-20T22:31:00.742Z,62.90
2019-06-20T22:33:31.119Z,62.90
2019-06-20T22:36:05.726Z,62.90
2019-06-20T22:38:41.559Z,63.70
2019-06-20T22:41:11.952Z,62.90
2019-06-20T22:43:43.424Z,62.90
2019-06-20T22:46:18.662Z,62.90
2019-06-20T22:48:50.896Z,62.90
2019-06-20T22:51:25.629Z,62.90
2019-06-20T22:54:00.456Z,62.90
2019-06-20T22:56:31.536Z,62.90
2019-06-20T22:59:05.759Z,63.00
2019-06-20T23:01:41.187Z,62.90
2019-06-20T23:04:14.482Z,62.90
2019-06-20T23:06:55.961Z,62.90
2019-06-20T23:09:28.549Z,62.90
2019-06-20T23:12:01.107Z,63.00
2019-06-20T23:14:32.575Z,62.80
2019-06-20T23:17:02.854Z,62.80
2019-06-20T23:19:34.595Z,62.90
2019-06-20T23:22:08.039Z,63.00
2019-06-20T23:24:39.302Z,62.90
2019-06-20T23:27:09.696Z,63.00
2019-06-20T23:29:42.508Z,62.90
2019-06-20T23:32:15.051Z,62.90
2019-06-20T23:34:46.039Z,62.90
2019-06-20T23:37:16.419Z,63.00
2019-06-20T23:39:49.964Z,62.90
2019-06-20T23:42:20.575Z,62.90
2019-06-20T23:44:54.035Z,62.90
2019-06-20T23:47:25.957Z,62.90
2019-06-20T23:49:57.023Z,63.10
2019-06-20T23:52:30.407Z,63.00
2019-06-20T23:55:01.935Z,63.00
2019-06-20T23:57:35.344Z,63.00
